sensor_id;sensor_type;location;lat;lon;timestamp;temperature;humidity
40589;DHT22;26297;49.450;6.640;2023-03-01T00:01:08;10.30;77.30
40589;DHT22;26297;49.450;6.640;2023-03-01T00:04:20;10.30;77.30
40589;DHT22;26297;49.450;6.640;2023-03-01T00:07:26;10.30;77.40
40589;DHT22;26297;49.450;6.640;2023-03-01T00:10:30;10.30;77.50
40589;DHT22;26297;49.450;6.640;2023-03-01T00:13:35;10.30;77.20
40589;DHT22;26297;49.450;6.640;2023-03-01T00:16:41;10.30;77.50
40589;DHT22;26297;49.450;6.640;2023-03-01T00:19:44;10.30;77.50
40589;DHT22;26297;49.450;6.640;2023-03-01T00:22:49;10.30;77.60
40589;DHT22;26297;49.450;6.640;2023-03-01T00:25:53;10.30;77.40
40589;DHT22;26297;49.450;6.640;2023-03-01T00:29:25;10.30;77.10
40589;DHT22;26297;49.450;6.640;2023-03-01T00:32:29;10.30;75.90
40589;DHT22;26297;49.450;6.640;2023-03-01T00:35:39;10.30;77.20
40589;DHT22;26297;49.450;6.640;2023-03-01T00:38:46;10.30;77.00
40589;DHT22;26297;49.450;6.640;2023-03-01T00:41:54;10.30;77.30
40589;DHT22;26297;49.450;6.640;2023-03-01T00:44:59;10.30;77.10
40589;DHT22;26297;49.450;6.640;2023-03-01T00:48:11;10.30;77.00
40589;DHT22;26297;49.450;6.640;2023-03-01T00:51:22;10.30;76.80
40589;DHT22;26297;49.450;6.640;2023-03-01T00:54:26;10.30;76.30
40589;DHT22;26297;49.450;6.640;2023-03-01T00:57:35;10.30;76.80
40589;DHT22;26297;49.450;6.640;2023-03-01T01:00:50;10.30;76.50
40589;DHT22;26297;49.450;6.640;2023-03-01T01:21:14;10.30;75.70
40589;DHT22;26297;49.450;6.640;2023-03-01T01:25:21;10.30;75.70
40589;DHT22;26297;49.450;6.640;2023-03-01T03:13:05;10.20;76.70
40589;DHT22;26297;49.450;6.640;2023-03-01T03:16:20;10.20;75.20
40589;DHT22;26297;49.450;6.640;2023-03-01T03:20:06;10.20;76.50
40589;DHT22;26297;49.450;6.640;2023-03-01T03:23:39;10.20;75.00
40589;DHT22;26297;49.450;6.640;2023-03-01T03:30:41;10.10;74.60
40589;DHT22;26297;49.450;6.640;2023-03-01T03:34:39;10.20;76.40
40589;DHT22;26297;49.450;6.640;2023-03-01T03:37:43;10.10;76.60
40589;DHT22;26297;49.450;6.640;2023-03-01T03:41:08;10.20;76.70
40589;DHT22;26297;49.450;6.640;2023-03-01T03:44:29;10.20;75.90
40589;DHT22;26297;49.450;6.640;2023-03-01T03:48:19;10.20;75.40
40589;DHT22;26297;49.450;6.640;2023-03-01T03:51:30;10.20;75.70
40589;DHT22;26297;49.450;6.640;2023-03-01T03:54:48;10.20;76.90
40589;DHT22;26297;49.450;6.640;2023-03-01T03:57:52;10.20;76.70
40589;DHT22;26297;49.450;6.640;2023-03-01T04:01:18;10.10;76.50
40589;DHT22;26297;49.450;6.640;2023-03-01T04:04:55;10.10;76.10
40589;DHT22;26297;49.450;6.640;2023-03-01T04:08:17;10.20;75.90
40589;DHT22;26297;49.450;6.640;2023-03-01T04:11:47;10.20;76.50
40589;DHT22;26297;49.450;6.640;2023-03-01T04:15:03;10.20;74.80
40589;DHT22;26297;49.450;6.640;2023-03-01T04:18:24;10.20;75.70
40589;DHT22;26297;49.450;6.640;2023-03-01T04:21:42;10.20;75.80
40589;DHT22;26297;49.450;6.640;2023-03-01T04:25:01;10.10;76.40
40589;DHT22;26297;49.450;6.640;2023-03-01T04:28:38;10.10;76.10
40589;DHT22;26297;49.450;6.640;2023-03-01T04:32:03;10.10;75.90
40589;DHT22;26297;49.450;6.640;2023-03-01T04:35:17;10.10;75.90
40589;DHT22;26297;49.450;6.640;2023-03-01T04:38:24;10.10;76.10
40589;DHT22;26297;49.450;6.640;2023-03-01T04:41:33;10.10;76.00
40589;DHT22;26297;49.450;6.640;2023-03-01T04:44:56;10.10;76.00
40589;DHT22;26297;49.450;6.640;2023-03-01T04:48:11;10.10;76.30
40589;DHT22;26297;49.450;6.640;2023-03-01T04:51:28;10.20;76.30
40589;DHT22;26297;49.450;6.640;2023-03-01T04:54:43;10.20;75.80
40589;DHT22;26297;49.450;6.640;2023-03-01T04:57:51;10.10;75.90
40589;DHT22;26297;49.450;6.640;2023-03-01T05:01:01;10.10;75.70
40589;DHT22;26297;49.450;6.640;2023-03-01T05:04:06;10.10;75.90
40589;DHT22;26297;49.450;6.640;2023-03-01T05:07:17;10.10;75.80
40589;DHT22;26297;49.450;6.640;2023-03-01T05:13:44;10.10;75.80
40589;DHT22;26297;49.450;6.640;2023-03-01T05:16:48;10.10;74.50
40589;DHT22;26297;49.450;6.640;2023-03-01T05:20:18;10.10;76.30
40589;DHT22;26297;49.450;6.640;2023-03-01T05:23:36;10.10;75.90
40589;DHT22;26297;49.450;6.640;2023-03-01T05:26:58;10.10;76.20
40589;DHT22;26297;49.450;6.640;2023-03-01T05:30:03;10.10;76.20
40589;DHT22;26297;49.450;6.640;2023-03-01T05:33:40;10.10;75.90
40589;DHT22;26297;49.450;6.640;2023-03-01T05:36:46;10.10;74.60
40589;DHT22;26297;49.450;6.640;2023-03-01T05:40:17;10.00;75.70
40589;DHT22;26297;49.450;6.640;2023-03-01T05:43:36;10.10;76.00
40589;DHT22;26297;49.450;6.640;2023-03-01T05:46:48;10.10;75.40
40589;DHT22;26297;49.450;6.640;2023-03-01T05:50:21;10.10;75.80
40589;DHT22;26297;49.450;6.640;2023-03-01T05:53:44;10.10;75.50
40589;DHT22;26297;49.450;6.640;2023-03-01T05:57:04;10.00;76.00
40589;DHT22;26297;49.450;6.640;2023-03-01T06:00:19;10.10;75.80
40589;DHT22;26297;49.450;6.640;2023-03-01T06:04:04;10.10;75.00
40589;DHT22;26297;49.450;6.640;2023-03-01T06:08:23;10.00;74.60
40589;DHT22;26297;49.450;6.640;2023-03-01T06:11:42;10.00;74.80
40589;DHT22;26297;49.450;6.640;2023-03-01T06:15:22;10.00;76.40
40589;DHT22;26297;49.450;6.640;2023-03-01T06:18:37;10.10;74.90
40589;DHT22;26297;49.450;6.640;2023-03-01T06:21:54;10.00;75.70
40589;DHT22;26297;49.450;6.640;2023-03-01T06:25:24;10.00;75.60
40589;DHT22;26297;49.450;6.640;2023-03-01T06:28:42;9.90;76.60
40589;DHT22;26297;49.450;6.640;2023-03-01T06:31:51;10.00;75.60
40589;DHT22;26297;49.450;6.640;2023-03-01T06:34:55;10.00;76.00
40589;DHT22;26297;49.450;6.640;2023-03-01T06:43:40;10.00;76.30
40589;DHT22;26297;49.450;6.640;2023-03-01T06:55:37;10.00;76.20
40589;DHT22;26297;49.450;6.640;2023-03-01T07:01:38;10.00;76.30
40589;DHT22;26297;49.450;6.640;2023-03-01T07:04:43;10.00;75.90
40589;DHT22;26297;49.450;6.640;2023-03-01T07:07:50;10.00;76.40
40589;DHT22;26297;49.450;6.640;2023-03-01T07:10:58;10.00;76.10
40589;DHT22;26297;49.450;6.640;2023-03-01T07:14:02;10.00;76.40
40589;DHT22;26297;49.450;6.640;2023-03-01T07:17:11;10.00;76.50
40589;DHT22;26297;49.450;6.640;2023-03-01T07:20:47;9.90;77.00
40589;DHT22;26297;49.450;6.640;2023-03-01T07:24:01;10.00;76.10
40589;DHT22;26297;49.450;6.640;2023-03-01T07:27:13;9.90;77.60
40589;DHT22;26297;49.450;6.640;2023-03-01T07:30:49;10.00;76.60
40589;DHT22;26297;49.450;6.640;2023-03-01T07:34:07;9.90;76.80
40589;DHT22;26297;49.450;6.640;2023-03-01T07:37:27;9.90;77.70
40589;DHT22;26297;49.450;6.640;2023-03-01T07:43:41;9.90;80.70
40589;DHT22;26297;49.450;6.640;2023-03-01T07:46:59;10.00;82.10
40589;DHT22;26297;49.450;6.640;2023-03-01T07:50:19;10.00;79.30
40589;DHT22;26297;49.450;6.640;2023-03-01T07:53:36;10.00;78.80
40589;DHT22;26297;49.450;6.640;2023-03-01T07:56:48;10.00;78.80
40589;DHT22;26297;49.450;6.640;2023-03-01T08:00:09;10.00;79.40
40589;DHT22;26297;49.450;6.640;2023-03-01T08:03:25;10.00;80.10
40589;DHT22;26297;49.450;6.640;2023-03-01T08:06:35;10.00;79.70
40589;DHT22;26297;49.450;6.640;2023-03-01T08:09:43;10.00;81.40
40589;DHT22;26297;49.450;6.640;2023-03-01T08:12:55;10.00;82.80
40589;DHT22;26297;49.450;6.640;2023-03-01T08:16:10;10.00;83.80
40589;DHT22;26297;49.450;6.640;2023-03-01T08:19:22;10.00;84.00
40589;DHT22;26297;49.450;6.640;2023-03-01T08:22:26;10.00;84.00
40589;DHT22;26297;49.450;6.640;2023-03-01T08:25:37;10.00;84.60
40589;DHT22;26297;49.450;6.640;2023-03-01T08:28:44;10.00;84.30
40589;DHT22;26297;49.450;6.640;2023-03-01T08:31:48;10.00;82.70
40589;DHT22;26297;49.450;6.640;2023-03-01T08:34:59;10.00;84.20
40589;DHT22;26297;49.450;6.640;2023-03-01T08:38:12;10.00;82.50
40589;DHT22;26297;49.450;6.640;2023-03-01T08:41:19;10.00;82.70
40589;DHT22;26297;49.450;6.640;2023-03-01T08:44:25;10.00;83.20
40589;DHT22;26297;49.450;6.640;2023-03-01T08:47:34;10.00;81.70
40589;DHT22;26297;49.450;6.640;2023-03-01T08:50:43;10.00;82.50
40589;DHT22;26297;49.450;6.640;2023-03-01T08:53:50;10.00;79.40
40589;DHT22;26297;49.450;6.640;2023-03-01T08:56:56;10.00;81.70
40589;DHT22;26297;49.450;6.640;2023-03-01T09:00:03;10.00;82.20
40589;DHT22;26297;49.450;6.640;2023-03-01T09:03:12;10.00;82.10
40589;DHT22;26297;49.450;6.640;2023-03-01T09:06:19;10.00;84.10
40589;DHT22;26297;49.450;6.640;2023-03-01T09:09:27;10.00;82.70
40589;DHT22;26297;49.450;6.640;2023-03-01T09:12:39;10.00;81.90
40589;DHT22;26297;49.450;6.640;2023-03-01T09:15:45;10.00;81.00
40589;DHT22;26297;49.450;6.640;2023-03-01T09:18:56;10.00;82.50
40589;DHT22;26297;49.450;6.640;2023-03-01T09:22:00;10.00;83.30
40589;DHT22;26297;49.450;6.640;2023-03-01T09:25:16;10.00;82.60
40589;DHT22;26297;49.450;6.640;2023-03-01T09:28:23;10.00;82.80
40589;DHT22;26297;49.450;6.640;2023-03-01T09:31:30;10.00;82.40
40589;DHT22;26297;49.450;6.640;2023-03-01T09:34:38;10.00;85.70
40589;DHT22;26297;49.450;6.640;2023-03-01T09:38:00;10.00;86.10
40589;DHT22;26297;49.450;6.640;2023-03-01T09:44:40;10.00;83.60
40589;DHT22;26297;49.450;6.640;2023-03-01T09:47:55;10.00;86.40
40589;DHT22;26297;49.450;6.640;2023-03-01T09:51:20;10.00;86.30
40589;DHT22;26297;49.450;6.640;2023-03-01T09:54:29;10.00;87.40
40589;DHT22;26297;49.450;6.640;2023-03-01T09:58:05;10.10;90.10
40589;DHT22;26297;49.450;6.640;2023-03-01T10:01:44;10.10;88.70
40589;DHT22;26297;49.450;6.640;2023-03-01T10:04:58;10.10;86.20
40589;DHT22;26297;49.450;6.640;2023-03-01T10:08:24;10.10;88.70
40589;DHT22;26297;49.450;6.640;2023-03-01T10:18:22;10.10;89.30
40589;DHT22;26297;49.450;6.640;2023-03-01T10:21:37;10.20;89.80
40589;DHT22;26297;49.450;6.640;2023-03-01T10:25:04;10.20;89.50
40589;DHT22;26297;49.450;6.640;2023-03-01T10:32:14;10.20;88.50
40589;DHT22;26297;49.450;6.640;2023-03-01T10:35:32;10.30;91.50
40589;DHT22;26297;49.450;6.640;2023-03-01T10:39:00;10.20;88.90
40589;DHT22;26297;49.450;6.640;2023-03-01T10:42:28;10.30;90.30
40589;DHT22;26297;49.450;6.640;2023-03-01T10:45:36;10.30;90.70
40589;DHT22;26297;49.450;6.640;2023-03-01T10:48:42;10.30;90.90
40589;DHT22;26297;49.450;6.640;2023-03-01T10:52:20;10.30;90.30
40589;DHT22;26297;49.450;6.640;2023-03-01T10:55:47;10.40;90.60
40589;DHT22;26297;49.450;6.640;2023-03-01T10:59:27;10.30;91.70
40589;DHT22;26297;49.450;6.640;2023-03-01T11:02:37;10.30;91.40
40589;DHT22;26297;49.450;6.640;2023-03-01T11:06:06;10.30;92.30
40589;DHT22;26297;49.450;6.640;2023-03-01T11:09:31;10.30;93.00
40589;DHT22;26297;49.450;6.640;2023-03-01T11:12:41;10.40;92.10
40589;DHT22;26297;49.450;6.640;2023-03-01T11:16:12;10.40;91.00
40589;DHT22;26297;49.450;6.640;2023-03-01T11:19:19;10.40;89.80
40589;DHT22;26297;49.450;6.640;2023-03-01T11:22:24;10.30;90.60
40589;DHT22;26297;49.450;6.640;2023-03-01T11:25:47;10.30;90.80
40589;DHT22;26297;49.450;6.640;2023-03-01T11:34:44;10.30;90.20
40589;DHT22;26297;49.450;6.640;2023-03-01T11:38:15;10.30;88.50
40589;DHT22;26297;49.450;6.640;2023-03-01T11:41:40;10.30;90.70
40589;DHT22;26297;49.450;6.640;2023-03-01T11:44:54;10.30;89.30
40589;DHT22;26297;49.450;6.640;2023-03-01T12:10:30;10.30;92.90
40589;DHT22;26297;49.450;6.640;2023-03-01T12:14:27;10.30;93.70
40589;DHT22;26297;49.450;6.640;2023-03-01T12:17:57;10.30;91.60
40589;DHT22;26297;49.450;6.640;2023-03-01T13:52:06;10.30;92.10
40589;DHT22;26297;49.450;6.640;2023-03-01T13:55:58;10.30;92.40
40589;DHT22;26297;49.450;6.640;2023-03-01T13:59:23;10.30;90.70
40589;DHT22;26297;49.450;6.640;2023-03-01T14:02:40;10.30;91.30
40589;DHT22;26297;49.450;6.640;2023-03-01T14:11:57;10.30;92.30
40589;DHT22;26297;49.450;6.640;2023-03-01T14:15:34;10.30;89.80
40589;DHT22;26297;49.450;6.640;2023-03-01T14:24:31;10.40;89.50
40589;DHT22;26297;49.450;6.640;2023-03-01T14:31:40;10.40;92.50
40589;DHT22;26297;49.450;6.640;2023-03-01T16:18:11;10.40;93.60
40589;DHT22;26297;49.450;6.640;2023-03-01T16:21:37;10.40;93.20
40589;DHT22;26297;49.450;6.640;2023-03-01T16:25:00;10.30;92.60
